sensor_id;sensor_type;location;lat;lon;timestamp;temperature;humidity
38910;DHT22;24676;51.360;12.354;2022-11-09T05:02:41;12.10;99.90
38910;DHT22;24676;51.360;12.354;2022-11-09T05:05:26;12.00;99.90
38910;DHT22;24676;51.360;12.354;2022-11-09T05:08:11;12.00;99.90
38910;DHT22;24676;51.360;12.354;2022-11-09T05:10:55;12.00;99.90
38910;DHT22;24676;51.360;12.354;2022-11-09T05:13:40;11.90;99.90
38910;DHT22;24676;51.360;12.354;2022-11-09T05:16:24;11.80;99.90
38910;DHT22;24676;51.360;12.354;2022-11-09T05:19:09;11.70;99.90
38910;DHT22;24676;51.360;12.354;2022-11-09T05:21:53;11.70;99.90
38910;DHT22;24676;51.360;12.354;2022-11-09T05:24:37;11.60;99.90
38910;DHT22;24676;51.360;12.354;2022-11-09T05:27:21;11.60;99.90
38910;DHT22;24676;51.360;12.354;2022-11-09T05:30:06;11.60;99.90
38910;DHT22;24676;51.360;12.354;2022-11-09T05:32:50;11.60;99.90
38910;DHT22;24676;51.360;12.354;2022-11-09T05:35:34;11.60;99.90
38910;DHT22;24676;51.360;12.354;2022-11-09T05:38:18;11.70;99.90
38910;DHT22;24676;51.360;12.354;2022-11-09T05:41:02;11.70;99.90
38910;DHT22;24676;51.360;12.354;2022-11-09T05:43:46;11.70;99.90
38910;DHT22;24676;51.360;12.354;2022-11-09T05:46:30;11.70;99.90
38910;DHT22;24676;51.360;12.354;2022-11-09T05:49:16;11.70;99.90
38910;DHT22;24676;51.360;12.354;2022-11-09T05:52:00;11.60;99.90
38910;DHT22;24676;51.360;12.354;2022-11-09T05:54:44;11.60;99.90
38910;DHT22;24676;51.360;12.354;2022-11-09T05:57:28;11.50;99.90
38910;DHT22;24676;51.360;12.354;2022-11-09T06:00:13;11.50;99.90
38910;DHT22;24676;51.360;12.354;2022-11-09T06:03:02;11.50;99.90
38910;DHT22;24676;51.360;12.354;2022-11-09T06:05:47;11.40;99.90
38910;DHT22;24676;51.360;12.354;2022-11-09T06:08:31;11.50;99.90
38910;DHT22;24676;51.360;12.354;2022-11-09T06:11:15;11.50;99.90
38910;DHT22;24676;51.360;12.354;2022-11-09T06:14:00;11.50;99.90
38910;DHT22;24676;51.360;12.354;2022-11-09T06:16:44;11.50;99.90
38910;DHT22;24676;51.360;12.354;2022-11-09T06:19:28;11.50;99.90
38910;DHT22;24676;51.360;12.354;2022-11-09T06:22:12;11.60;99.90
38910;DHT22;24676;51.360;12.354;2022-11-09T06:24:56;11.60;99.90
38910;DHT22;24676;51.360;12.354;2022-11-09T06:27:40;11.70;99.90
38910;DHT22;24676;51.360;12.354;2022-11-09T06:30:24;11.80;99.90
38910;DHT22;24676;51.360;12.354;2022-11-09T06:33:09;11.80;99.90
38910;DHT22;24676;51.360;12.354;2022-11-09T06:35:53;11.80;99.90
38910;DHT22;24676;51.360;12.354;2022-11-09T06:38:37;11.90;99.90
38910;DHT22;24676;51.360;12.354;2022-11-09T06:41:21;11.90;99.90
38910;DHT22;24676;51.360;12.354;2022-11-09T06:44:05;12.00;99.90
38910;DHT22;24676;51.360;12.354;2022-11-09T06:46:50;12.00;99.90
38910;DHT22;24676;51.360;12.354;2022-11-09T06:49:34;12.00;99.90
38910;DHT22;24676;51.360;12.354;2022-11-09T06:52:18;12.00;99.90
38910;DHT22;24676;51.360;12.354;2022-11-09T06:55:02;12.00;99.90
38910;DHT22;24676;51.360;12.354;2022-11-09T06:57:46;11.90;99.90
38910;DHT22;24676;51.360;12.354;2022-11-09T07:00:31;11.70;99.90
38910;DHT22;24676;51.360;12.354;2022-11-09T07:03:17;11.60;99.90
38910;DHT22;24676;51.360;12.354;2022-11-09T07:06:06;11.50;99.90
38910;DHT22;24676;51.360;12.354;2022-11-09T07:08:54;11.50;99.90
38910;DHT22;24676;51.360;12.354;2022-11-09T07:11:39;11.40;99.90
38910;DHT22;24676;51.360;12.354;2022-11-09T07:14:23;11.40;99.90
38910;DHT22;24676;51.360;12.354;2022-11-09T07:17:07;11.40;99.90
38910;DHT22;24676;51.360;12.354;2022-11-09T07:19:51;11.30;99.90
38910;DHT22;24676;51.360;12.354;2022-11-09T07:22:35;11.30;99.90
38910;DHT22;24676;51.360;12.354;2022-11-09T07:25:23;11.30;99.90
38910;DHT22;24676;51.360;12.354;2022-11-09T07:28:10;11.20;99.90
38910;DHT22;24676;51.360;12.354;2022-11-09T07:30:56;11.30;99.90
38910;DHT22;24676;51.360;12.354;2022-11-09T07:33:40;11.20;99.90
38910;DHT22;24676;51.360;12.354;2022-11-09T07:36:24;11.20;99.90
38910;DHT22;24676;51.360;12.354;2022-11-09T07:39:09;11.20;99.90
38910;DHT22;24676;51.360;12.354;2022-11-09T07:41:53;11.20;99.90
38910;DHT22;24676;51.360;12.354;2022-11-09T07:44:38;11.20;99.90
38910;DHT22;24676;51.360;12.354;2022-11-09T07:47:22;11.20;99.90
38910;DHT22;24676;51.360;12.354;2022-11-09T07:50:06;11.20;99.90
38910;DHT22;24676;51.360;12.354;2022-11-09T07:52:50;11.20;99.90
38910;DHT22;24676;51.360;12.354;2022-11-09T07:55:35;11.20;99.90
38910;DHT22;24676;51.360;12.354;2022-11-09T07:58:19;11.20;99.90
38910;DHT22;24676;51.360;12.354;2022-11-09T08:01:08;11.20;99.90
38910;DHT22;24676;51.360;12.354;2022-11-09T08:03:53;11.10;99.90
38910;DHT22;24676;51.360;12.354;2022-11-09T08:06:37;11.20;99.90
38910;DHT22;24676;51.360;12.354;2022-11-09T08:09:21;11.10;99.90
38910;DHT22;24676;51.360;12.354;2022-11-09T08:12:05;11.10;99.90
38910;DHT22;24676;51.360;12.354;2022-11-09T08:14:50;11.20;99.90
38910;DHT22;24676;51.360;12.354;2022-11-09T08:17:34;11.30;99.90
38910;DHT22;24676;51.360;12.354;2022-11-09T08:20:19;11.40;99.90
38910;DHT22;24676;51.360;12.354;2022-11-09T08:23:03;11.30;99.90
38910;DHT22;24676;51.360;12.354;2022-11-09T08:25:49;11.30;99.90
38910;DHT22;24676;51.360;12.354;2022-11-09T08:28:33;11.30;99.90
38910;DHT22;24676;51.360;12.354;2022-11-09T08:31:18;11.30;99.90
38910;DHT22;24676;51.360;12.354;2022-11-09T08:34:02;11.30;99.90
38910;DHT22;24676;51.360;12.354;2022-11-09T08:36:46;11.40;99.90
38910;DHT22;24676;51.360;12.354;2022-11-09T08:39:31;11.50;99.90
38910;DHT22;24676;51.360;12.354;2022-11-09T08:42:15;11.60;99.90
38910;DHT22;24676;51.360;12.354;2022-11-09T08:44:59;11.70;99.90
38910;DHT22;24676;51.360;12.354;2022-11-09T08:47:43;11.80;99.90
38910;DHT22;24676;51.360;12.354;2022-11-09T08:50:29;11.80;99.90
38910;DHT22;24676;51.360;12.354;2022-11-09T08:53:12;11.80;99.90
38910;DHT22;24676;51.360;12.354;2022-11-09T08:55:57;11.90;99.90
38910;DHT22;24676;51.360;12.354;2022-11-09T08:58:41;11.90;99.90
38910;DHT22;24676;51.360;12.354;2022-11-09T09:01:25;11.90;99.90
38910;DHT22;24676;51.360;12.354;2022-11-09T09:04:09;12.00;99.90
38910;DHT22;24676;51.360;12.354;2022-11-09T09:06:53;12.10;99.90
38910;DHT22;24676;51.360;12.354;2022-11-09T09:09:38;12.10;99.90
38910;DHT22;24676;51.360;12.354;2022-11-09T09:12:23;12.10;99.90
38910;DHT22;24676;51.360;12.354;2022-11-09T09:15:08;12.00;99.90
38910;DHT22;24676;51.360;12.354;2022-11-09T09:17:52;12.00;99.90
38910;DHT22;24676;51.360;12.354;2022-11-09T09:20:36;12.00;99.90
38910;DHT22;24676;51.360;12.354;2022-11-09T09:23:20;12.10;99.90
38910;DHT22;24676;51.360;12.354;2022-11-09T09:26:05;12.20;99.90
38910;DHT22;24676;51.360;12.354;2022-11-09T09:28:50;12.30;99.90
38910;DHT22;24676;51.360;12.354;2022-11-09T09:31:34;12.30;99.90
38910;DHT22;24676;51.360;12.354;2022-11-09T09:34:18;12.40;99.90
38910;DHT22;24676;51.360;12.354;2022-11-09T09:37:02;12.60;99.90
38910;DHT22;24676;51.360;12.354;2022-11-09T09:39:46;12.70;99.90
38910;DHT22;24676;51.360;12.354;2022-11-09T09:42:35;12.70;99.90
38910;DHT22;24676;51.360;12.354;2022-11-09T09:45:23;12.80;99.90
38910;DHT22;24676;51.360;12.354;2022-11-09T09:48:17;13.00;99.90
38910;DHT22;24676;51.360;12.354;2022-11-09T09:54:26;15.10;99.90
38910;DHT22;24676;51.360;12.354;2022-11-09T09:57:18;15.40;99.90
38910;DHT22;24676;51.360;12.354;2022-11-09T10:00:06;15.10;99.90
38910;DHT22;24676;51.360;12.354;2022-11-09T10:02:51;14.70;99.90
38910;DHT22;24676;51.360;12.354;2022-11-09T10:06:10;14.50;99.90
38910;DHT22;24676;51.360;12.354;2022-11-09T10:15:51;14.20;99.90
38910;DHT22;24676;51.360;12.354;2022-11-09T10:18:41;14.50;99.90
38910;DHT22;24676;51.360;12.354;2022-11-09T10:27:56;15.60;99.90
38910;DHT22;24676;51.360;12.354;2022-11-09T10:30:39;15.90;99.90
38910;DHT22;24676;51.360;12.354;2022-11-09T10:33:25;16.20;99.90
38910;DHT22;24676;51.360;12.354;2022-11-09T10:36:38;16.20;99.90
38910;DHT22;24676;51.360;12.354;2022-11-09T10:39:30;16.10;99.90
38910;DHT22;24676;51.360;12.354;2022-11-09T10:42:17;16.10;99.90
38910;DHT22;24676;51.360;12.354;2022-11-09T10:45:11;16.40;99.90
38910;DHT22;24676;51.360;12.354;2022-11-09T10:47:57;16.50;99.90
38910;DHT22;24676;51.360;12.354;2022-11-09T10:50:51;16.60;99.90
38910;DHT22;24676;51.360;12.354;2022-11-09T10:53:37;16.40;99.90
38910;DHT22;24676;51.360;12.354;2022-11-09T10:56:21;16.30;99.90
38910;DHT22;24676;51.360;12.354;2022-11-09T10:59:27;16.40;99.90
38910;DHT22;24676;51.360;12.354;2022-11-09T11:07:51;16.20;99.90
38910;DHT22;24676;51.360;12.354;2022-11-09T11:10:35;16.10;99.90
38910;DHT22;24676;51.360;12.354;2022-11-09T11:13:20;16.00;99.90
38910;DHT22;24676;51.360;12.354;2022-11-09T11:16:28;15.90;99.90
38910;DHT22;24676;51.360;12.354;2022-11-09T11:19:38;15.80;99.90
38910;DHT22;24676;51.360;12.354;2022-11-09T11:22:24;15.90;99.90
38910;DHT22;24676;51.360;12.354;2022-11-09T11:25:19;15.80;99.90
38910;DHT22;24676;51.360;12.354;2022-11-09T11:28:17;15.80;99.90
38910;DHT22;24676;51.360;12.354;2022-11-09T11:31:03;15.80;99.90
38910;DHT22;24676;51.360;12.354;2022-11-09T11:33:48;15.70;99.90
38910;DHT22;24676;51.360;12.354;2022-11-09T11:36:55;15.80;99.90
38910;DHT22;24676;51.360;12.354;2022-11-09T11:39:54;15.80;99.90
38910;DHT22;24676;51.360;12.354;2022-11-09T11:55:49;15.40;99.90
38910;DHT22;24676;51.360;12.354;2022-11-09T12:05:19;15.70;99.90
38910;DHT22;24676;51.360;12.354;2022-11-09T12:11:32;15.80;99.90
38910;DHT22;24676;51.360;12.354;2022-11-09T12:38:30;16.10;99.90
38910;DHT22;24676;51.360;12.354;2022-11-09T12:41:18;16.30;99.90
38910;DHT22;24676;51.360;12.354;2022-11-09T12:44:18;16.40;99.90
38910;DHT22;24676;51.360;12.354;2022-11-09T12:47:14;16.60;99.90
38910;DHT22;24676;51.360;12.354;2022-11-09T12:50:00;16.70;99.90
38910;DHT22;24676;51.360;12.354;2022-11-09T12:52:47;16.70;99.90
38910;DHT22;24676;51.360;12.354;2022-11-09T12:58:23;16.60;99.90
38910;DHT22;24676;51.360;12.354;2022-11-09T13:01:17;16.50;99.90
38910;DHT22;24676;51.360;12.354;2022-11-09T13:04:18;16.60;99.90
38910;DHT22;24676;51.360;12.354;2022-11-09T13:09:53;16.40;99.90
38910;DHT22;24676;51.360;12.354;2022-11-09T13:12:39;16.30;99.90
38910;DHT22;24676;51.360;12.354;2022-11-09T13:15:27;16.20;99.90
38910;DHT22;24676;51.360;12.354;2022-11-09T13:18:24;16.20;99.90
38910;DHT22;24676;51.360;12.354;2022-11-09T13:36:12;16.40;99.90
38910;DHT22;24676;51.360;12.354;2022-11-09T13:39:31;16.30;99.90
38910;DHT22;24676;51.360;12.354;2022-11-09T13:42:29;16.20;99.90
38910;DHT22;24676;51.360;12.354;2022-11-09T13:54:51;16.10;99.90
38910;DHT22;24676;51.360;12.354;2022-11-09T13:57:37;16.00;99.90
38910;DHT22;24676;51.360;12.354;2022-11-09T14:00:24;16.00;99.90
38910;DHT22;24676;51.360;12.354;2022-11-09T14:03:26;15.90;99.90
38910;DHT22;24676;51.360;12.354;2022-11-09T14:06:11;15.90;99.90
38910;DHT22;24676;51.360;12.354;2022-11-09T14:08:57;15.90;99.90
38910;DHT22;24676;51.360;12.354;2022-11-09T14:21:27;15.90;99.90
38910;DHT22;24676;51.360;12.354;2022-11-09T14:24:28;15.80;99.90
38910;DHT22;24676;51.360;12.354;2022-11-09T14:27:17;15.70;99.90
38910;DHT22;24676;51.360;12.354;2022-11-09T14:30:14;15.60;99.90
38910;DHT22;24676;51.360;12.354;2022-11-09T14:33:00;15.60;99.90
38910;DHT22;24676;51.360;12.354;2022-11-09T14:35:44;15.50;99.90
38910;DHT22;24676;51.360;12.354;2022-11-09T14:38:34;15.40;99.90
38910;DHT22;24676;51.360;12.354;2022-11-09T14:41:21;15.40;99.90
38910;DHT22;24676;51.360;12.354;2022-11-09T14:44:23;15.30;99.90
38910;DHT22;24676;51.360;12.354;2022-11-09T14:47:17;15.20;99.90
38910;DHT22;24676;51.360;12.354;2022-11-09T14:50:03;15.10;99.90
38910;DHT22;24676;51.360;12.354;2022-11-09T14:52:49;15.10;99.90
38910;DHT22;24676;51.360;12.354;2022-11-09T14:55:36;15.00;99.90
38910;DHT22;24676;51.360;12.354;2022-11-09T14:58:23;15.00;99.90
38910;DHT22;24676;51.360;12.354;2022-11-09T15:04:14;14.90;99.90
38910;DHT22;24676;51.360;12.354;2022-11-09T15:07:18;14.80;99.90
38910;DHT22;24676;51.360;12.354;2022-11-09T15:10:06;14.80;99.90
38910;DHT22;24676;51.360;12.354;2022-11-09T15:12:52;14.80;99.90
38910;DHT22;24676;51.360;12.354;2022-11-09T15:15:39;14.70;99.90
38910;DHT22;24676;51.360;12.354;2022-11-09T15:18:32;14.70;99.90
38910;DHT22;24676;51.360;12.354;2022-11-09T15:24:13;14.70;99.90
38910;DHT22;24676;51.360;12.354;2022-11-09T15:26:58;14.60;99.90
38910;DHT22;24676;51.360;12.354;2022-11-09T15:29:42;14.60;99.90
38910;DHT22;24676;51.360;12.354;2022-11-09T15:32:32;14.60;99.90
38910;DHT22;24676;51.360;12.354;2022-11-09T15:35:17;14.50;99.90
38910;DHT22;24676;51.360;12.354;2022-11-09T15:38:02;14.50;99.90
38910;DHT22;24676;51.360;12.354;2022-11-09T15:40:46;14.40;99.90
38910;DHT22;24676;51.360;12.354;2022-11-09T15:43:30;14.40;99.90
38910;DHT22;24676;51.360;12.354;2022-11-09T15:46:18;14.30;99.90
38910;DHT22;24676;51.360;12.354;2022-11-09T15:49:24;14.20;99.90
38910;DHT22;24676;51.360;12.354;2022-11-09T15:52:10;14.20;99.90
38910;DHT22;24676;51.360;12.354;2022-11-09T15:54:55;14.20;99.90
38910;DHT22;24676;51.360;12.354;2022-11-09T15:57:39;14.10;99.90
38910;DHT22;24676;51.360;12.354;2022-11-09T16:00:23;14.00;99.90
38910;DHT22;24676;51.360;12.354;2022-11-09T16:03:09;14.00;99.90
38910;DHT22;24676;51.360;12.354;2022-11-09T16:05:53;14.00;99.90
38910;DHT22;24676;51.360;12.354;2022-11-09T16:08:37;13.90;99.90
38910;DHT22;24676;51.360;12.354;2022-11-09T16:11:21;13.90;99.90
38910;DHT22;24676;51.360;12.354;2022-11-09T16:14:06;13.90;99.90
38910;DHT22;24676;51.360;12.354;2022-11-09T16:16:50;13.90;99.90
38910;DHT22;24676;51.360;12.354;2022-11-09T16:19:34;13.90;99.90
38910;DHT22;24676;51.360;12.354;2022-11-09T16:22:19;13.80;99.90
38910;DHT22;24676;51.360;12.354;2022-11-09T16:25:03;13.80;99.90
38910;DHT22;24676;51.360;12.354;2022-11-09T16:27:48;13.70;99.90
38910;DHT22;24676;51.360;12.354;2022-11-09T16:30:32;13.70;99.90
38910;DHT22;24676;51.360;12.354;2022-11-09T16:33:17;13.60;99.90
38910;DHT22;24676;51.360;12.354;2022-11-09T16:36:05;13.60;99.90
38910;DHT22;24676;51.360;12.354;2022-11-09T16:39:07;13.50;99.90
38910;DHT22;24676;51.360;12.354;2022-11-09T16:41:55;13.50;99.90
38910;DHT22;24676;51.360;12.354;2022-11-09T16:44:41;13.40;99.90
38910;DHT22;24676;51.360;12.354;2022-11-09T16:47:27;13.40;99.90
38910;DHT22;24676;51.360;12.354;2022-11-09T16:50:11;13.40;99.90
38910;DHT22;24676;51.360;12.354;2022-11-09T16:52:55;13.40;99.90
38910;DHT22;24676;51.360;12.354;2022-11-09T16:55:40;13.30;99.90
38910;DHT22;24676;51.360;12.354;2022-11-09T16:58:24;13.40;99.90
38910;DHT22;24676;51.360;12.354;2022-11-09T17:01:09;13.30;99.90
38910;DHT22;24676;51.360;12.354;2022-11-09T17:03:55;13.30;99.90
38910;DHT22;24676;51.360;12.354;2022-11-09T17:06:40;13.30;99.90
38910;DHT22;24676;51.360;12.354;2022-11-09T17:09:24;13.30;99.90
38910;DHT22;24676;51.360;12.354;2022-11-09T17:12:09;13.30;99.90
38910;DHT22;24676;51.360;12.354;2022-11-09T17:14:53;13.20;99.90
38910;DHT22;24676;51.360;12.354;2022-11-09T17:17:37;13.20;99.90
38910;DHT22;24676;51.360;12.354;2022-11-09T17:20:21;13.20;99.90
38910;DHT22;24676;51.360;12.354;2022-11-09T17:23:06;13.10;99.90
38910;DHT22;24676;51.360;12.354;2022-11-09T17:26:00;13.10;99.90
38910;DHT22;24676;51.360;12.354;2022-11-09T17:28:45;13.10;99.90
38910;DHT22;24676;51.360;12.354;2022-11-09T17:31:30;13.10;99.90
38910;DHT22;24676;51.360;12.354;2022-11-09T17:34:15;13.10;99.90
38910;DHT22;24676;51.360;12.354;2022-11-09T17:36:59;13.10;99.90
38910;DHT22;24676;51.360;12.354;2022-11-09T17:39:44;13.10;99.90
38910;DHT22;24676;51.360;12.354;2022-11-09T17:42:28;13.10;99.90
38910;DHT22;24676;51.360;12.354;2022-11-09T17:45:13;13.00;99.90
38910;DHT22;24676;51.360;12.354;2022-11-09T17:47:57;13.00;99.90
38910;DHT22;24676;51.360;12.354;2022-11-09T17:50:42;13.00;99.90
38910;DHT22;24676;51.360;12.354;2022-11-09T17:53:27;12.90;99.90
38910;DHT22;24676;51.360;12.354;2022-11-09T17:56:12;12.90;99.90
38910;DHT22;24676;51.360;12.354;2022-11-09T17:58:56;12.90;99.90
38910;DHT22;24676;51.360;12.354;2022-11-09T18:01:41;13.00;99.90
38910;DHT22;24676;51.360;12.354;2022-11-09T18:04:25;13.00;99.90
38910;DHT22;24676;51.360;12.354;2022-11-09T18:07:09;13.00;99.90
38910;DHT22;24676;51.360;12.354;2022-11-09T18:09:54;13.00;99.90
38910;DHT22;24676;51.360;12.354;2022-11-09T18:12:38;13.00;99.90
38910;DHT22;24676;51.360;12.354;2022-11-09T18:15:23;13.00;99.90
38910;DHT22;24676;51.360;12.354;2022-11-09T18:18:07;13.00;99.90
38910;DHT22;24676;51.360;12.354;2022-11-09T18:20:51;13.00;99.90
38910;DHT22;24676;51.360;12.354;2022-11-09T18:23:36;13.00;99.90
38910;DHT22;24676;51.360;12.354;2022-11-09T18:26:20;13.10;99.90
38910;DHT22;24676;51.360;12.354;2022-11-09T18:29:04;13.10;99.90
38910;DHT22;24676;51.360;12.354;2022-11-09T18:31:49;13.10;99.90
38910;DHT22;24676;51.360;12.354;2022-11-09T18:34:33;13.10;99.90
38910;DHT22;24676;51.360;12.354;2022-11-09T18:37:17;13.10;99.90
38910;DHT22;24676;51.360;12.354;2022-11-09T18:40:03;13.10;99.90
38910;DHT22;24676;51.360;12.354;2022-11-09T18:42:47;13.10;99.90
38910;DHT22;24676;51.360;12.354;2022-11-09T18:45:31;13.10;99.90
38910;DHT22;24676;51.360;12.354;2022-11-09T18:48:17;13.10;99.90
38910;DHT22;24676;51.360;12.354;2022-11-09T18:51:02;13.10;99.90
38910;DHT22;24676;51.360;12.354;2022-11-09T18:53:47;13.10;99.90
38910;DHT22;24676;51.360;12.354;2022-11-09T18:56:31;13.10;99.90
38910;DHT22;24676;51.360;12.354;2022-11-09T18:59:15;13.10;99.90
38910;DHT22;24676;51.360;12.354;2022-11-09T19:02:00;13.00;99.90
38910;DHT22;24676;51.360;12.354;2022-11-09T19:04:44;13.00;99.90
38910;DHT22;24676;51.360;12.354;2022-11-09T19:07:29;13.00;99.90
38910;DHT22;24676;51.360;12.354;2022-11-09T19:10:13;13.00;99.90
38910;DHT22;24676;51.360;12.354;2022-11-09T19:12:57;13.00;99.90
38910;DHT22;24676;51.360;12.354;2022-11-09T19:15:42;13.00;99.90
38910;DHT22;24676;51.360;12.354;2022-11-09T19:18:28;13.10;99.90
38910;DHT22;24676;51.360;12.354;2022-11-09T19:24:13;13.10;99.90
38910;DHT22;24676;51.360;12.354;2022-11-09T19:26:58;13.10;99.90
38910;DHT22;24676;51.360;12.354;2022-11-09T19:29:43;13.00;99.90
38910;DHT22;24676;51.360;12.354;2022-11-09T19:32:27;13.00;99.90
38910;DHT22;24676;51.360;12.354;2022-11-09T19:35:12;13.00;99.90
38910;DHT22;24676;51.360;12.354;2022-11-09T19:37:57;13.00;99.90
38910;DHT22;24676;51.360;12.354;2022-11-09T19:40:42;13.00;99.90
38910;DHT22;24676;51.360;12.354;2022-11-09T19:43:26;13.00;99.90
38910;DHT22;24676;51.360;12.354;2022-11-09T19:46:11;13.00;99.90
38910;DHT22;24676;51.360;12.354;2022-11-09T19:48:55;13.00;99.90
38910;DHT22;24676;51.360;12.354;2022-11-09T19:51:40;13.00;99.90
38910;DHT22;24676;51.360;12.354;2022-11-09T19:54:24;13.00;99.90
38910;DHT22;24676;51.360;12.354;2022-11-09T19:57:09;13.00;99.90
38910;DHT22;24676;51.360;12.354;2022-11-09T19:59:53;13.00;99.90
38910;DHT22;24676;51.360;12.354;2022-11-09T20:02:37;13.00;99.90
38910;DHT22;24676;51.360;12.354;2022-11-09T20:05:22;13.00;99.90
38910;DHT22;24676;51.360;12.354;2022-11-09T20:08:06;13.00;99.90
38910;DHT22;24676;51.360;12.354;2022-11-09T20:10:51;13.00;99.90
38910;DHT22;24676;51.360;12.354;2022-11-09T20:13:37;13.00;99.90
38910;DHT22;24676;51.360;12.354;2022-11-09T20:16:22;13.00;99.90
38910;DHT22;24676;51.360;12.354;2022-11-09T20:19:08;13.00;99.90
38910;DHT22;24676;51.360;12.354;2022-11-09T20:21:52;13.00;99.90
38910;DHT22;24676;51.360;12.354;2022-11-09T20:24:37;13.00;99.90
38910;DHT22;24676;51.360;12.354;2022-11-09T20:27:21;12.90;99.90
38910;DHT22;24676;51.360;12.354;2022-11-09T20:30:05;12.90;99.90
38910;DHT22;24676;51.360;12.354;2022-11-09T20:32:49;12.90;99.90
38910;DHT22;24676;51.360;12.354;2022-11-09T20:35:34;12.90;99.90
38910;DHT22;24676;51.360;12.354;2022-11-09T20:38:19;12.90;99.90
38910;DHT22;24676;51.360;12.354;2022-11-09T20:41:05;12.90;99.90
38910;DHT22;24676;51.360;12.354;2022-11-09T20:43:50;12.90;99.90
38910;DHT22;24676;51.360;12.354;2022-11-09T20:46:34;12.80;99.90
38910;DHT22;24676;51.360;12.354;2022-11-09T20:49:18;12.80;99.90
38910;DHT22;24676;51.360;12.354;2022-11-09T20:52:03;12.80;99.90
38910;DHT22;24676;51.360;12.354;2022-11-09T20:54:47;12.80;99.90
38910;DHT22;24676;51.360;12.354;2022-11-09T20:57:32;12.70;99.90
38910;DHT22;24676;51.360;12.354;2022-11-09T21:00:17;12.70;99.90
38910;DHT22;24676;51.360;12.354;2022-11-09T21:03:01;12.60;99.90
38910;DHT22;24676;51.360;12.354;2022-11-09T21:05:45;12.60;99.90
38910;DHT22;24676;51.360;12.354;2022-11-09T21:08:30;12.60;99.90
38910;DHT22;24676;51.360;12.354;2022-11-09T21:11:16;12.60;99.90
38910;DHT22;24676;51.360;12.354;2022-11-09T21:14:00;12.60;99.90
38910;DHT22;24676;51.360;12.354;2022-11-09T21:16:45;12.60;99.90
38910;DHT22;24676;51.360;12.354;2022-11-09T21:19:29;12.60;99.90
38910;DHT22;24676;51.360;12.354;2022-11-09T21:22:14;12.60;99.90
38910;DHT22;24676;51.360;12.354;2022-11-09T21:24:58;12.50;99.90
38910;DHT22;24676;51.360;12.354;2022-11-09T21:28:01;12.50;99.90
38910;DHT22;24676;51.360;12.354;2022-11-09T21:31:04;12.50;99.90
38910;DHT22;24676;51.360;12.354;2022-11-09T21:33:51;12.50;99.90
38910;DHT22;24676;51.360;12.354;2022-11-09T21:36:36;12.50;99.90
38910;DHT22;24676;51.360;12.354;2022-11-09T21:39:20;12.50;99.90
38910;DHT22;24676;51.360;12.354;2022-11-09T21:42:04;12.50;99.90
38910;DHT22;24676;51.360;12.354;2022-11-09T21:44:49;12.40;99.90
38910;DHT22;24676;51.360;12.354;2022-11-09T21:47:33;12.40;99.90
38910;DHT22;24676;51.360;12.354;2022-11-09T21:50:17;12.40;99.90
38910;DHT22;24676;51.360;12.354;2022-11-09T21:53:01;12.40;99.90
38910;DHT22;24676;51.360;12.354;2022-11-09T21:55:45;12.40;99.90
38910;DHT22;24676;51.360;12.354;2022-11-09T21:58:30;12.40;99.90
